Miami, Florida
Current Conditions -  °F | °C
As of 2:53 PM on Sunday 23 Nov 2014 (Local Time) from KMIA Reporting Station
Broken Clouds Broken Clouds  
Wind Chill: 82°   Ceiling: 2000
Heat Index: 87°   Visibility: 10mi
Dew Point: 73°   Wind: 16mph
Humidity: 74%   Direction: 130°SE
Pressure: 29.93"   Gusts: 26mph
Location:  25.77°N, 80.19°W
Report Text: KMIA 231953Z 13014G23KT 10SM BKN020 BKN030 28/23 A2993 RMK AO2 SLP135 T02780228
Loading
Personal Weather Stations






























Interactive Weather Map New forecast layout! Learn more

10-Day Weather Forecast

Advertisements
Track Severe Weather on mobile